ナンディ国際空港の過去48時間の天気

ナンディ国際空港 (Nandi)

現在時刻: 9/28 21:22 +12 (9/28 09:22 UTC) 以下の時間は現地時間です。

過去48時間のMETAR気象情報
時間 風向 風速(m/s) 視程 気温(℃) 湿度(%) 気圧(hPa) 天気現象
28 21:00 3 10km以上 26 79 1013
28 20:00 不定 1 10km以上 27 79 1013
28 19:00 北西 2 10km以上 27 74 1013
28 18:00 北西 4 10km以上 27 74 1012
28 17:00 西北西 5 10km以上 28 70 1011
28 16:00 西北西 6 10km以上 28 70 1011
28 15:00 西北西 6 10km以上 29 66 1012
28 14:00 西北西 6 10km以上 29 62 1012
28 13:00 西北西 7 10km以上 29 66 1013
28 12:00 北西 7 10km以上 29 58 1014
28 11:00 西北西 6 10km以上 29 62 1014
28 10:00 西 3 10km以上 29 58 1015
28 09:00 2 10km以上 28 62 1015
28 08:00 不定 1 10km以上 26 70 1015
28 07:00 東南東 2 10km以上 22 83 1015
28 06:00 南東 2 10km以上 21 88 1014
28 05:00 南東 3 10km以上 21 94 1014
28 04:00 東南東 2 10km以上 21 94 1013
28 03:00 南東 2 10km以上 21 94 1014
28 02:00 東南東 2 10km以上 22 88 1014
28 01:00 南南東 2 10km以上 22 88 1015
28 00:00 南東 2 10km以上 23 83 1015
27 23:00 東南東 3 10km以上 23 83 1016
27 22:00 東南東 2 10km以上 24 83 1016
27 21:00 4 10km以上 24 83 1015
27 20:00 不定 2 10km以上 26 74 1015
27 19:00 西北西 3 10km以上 26 74 1014
27 18:00 西北西 5 10km以上 27 66 1013
27 17:00 北西 6 10km以上 28 62 1013
27 16:00 西北西 5 10km以上 29 55 1013
27 15:00 西 5 10km以上 29 55 1013
27 14:00 西 5 10km以上 29 52 1014
27 13:00 西 7 10km以上 29 58 1015
27 12:00 西北西 7 10km以上 28 55 1015
27 11:00 西 6 10km以上 29 48 1016
27 10:00 西北西 4 10km以上 29 48 1017
27 09:00 東北東 2 10km以上 28 55 1017
27 08:00 南東 3 10km以上 25 65 1017
NFFN 280900Z 09006KT 9999 FEW030 SCT050 26/22 Q1013 NOSIG
NFFN 280800Z VRB02KT 9999 SCT030 BKN050 27/23 Q1013 NOSIG
NFFN 280700Z 32004KT 9999 SCT030 BKN050 27/22 Q1013 NOSIG
NFFN 280600Z 31008KT 9999 SCT030 BKN050 27/22 Q1012 NOSIG
NFFN 280500Z 30010KT 9999 SCT030 BKN050 28/22 Q1011 NOSIG
NFFN 280400Z 29012KT 9999 FEW030 28/22 Q1011 NOSIG
NFFN 280300Z 29012KT 9999 FEW030 29/22 Q1012 NOSIG
NFFN 280200Z 30012KT 9999 FEW030 29/21 Q1012 NOSIG
NFFN 280100Z 30013KT 9999 SCT030 29/22 Q1013 NOSIG
NFFN 280000Z 31014KT 9999 FEW030 29/20 Q1014 NOSIG
NFFN 272300Z 30012KT 9999 FEW030 29/21 Q1014 NOSIG
NFFN 272200Z 28006KT 9999 FEW030 29/20 Q1015 NOSIG
NFFN 272100Z 01003KT 9999 FEW030 28/20 Q1015 NOSIG
NFFN 272000Z VRB02KT 9999 FEW030 26/20 Q1015 NOSIG
NFFN 271900Z 11004KT 9999 FEW030 22/19 Q1015 NOSIG
NFFN 271800Z 14004KT 9999 SCT030 21/19 Q1014 NOSIG
NFFN 271700Z 13005KT 9999 FEW030 21/20 Q1014 NOSIG
NFFN 271600Z 11003KT 9999 FEW030 21/20 Q1013 NOSIG
NFFN 271500Z 14004KT 9999 FEW030 21/20 Q1014 NOSIG
NFFN 271400Z 12003KT 9999 FEW030 22/20 Q1014 NOSIG
NFFN 271300Z 15004KT 9999 FEW030 22/20 Q1015 NOSIG
NFFN 271200Z 13004KT 9999 FEW030 23/20 Q1015 NOSIG
NFFN 271100Z 11005KT 9999 FEW030 23/20 Q1016 NOSIG
NFFN 271000Z 11004KT 9999 FEW030 24/21 Q1016 NOSIG
NFFN 270900Z 09007KT 9999 SCT030 24/21 Q1015 NOSIG
NFFN 270800Z VRB03KT 9999 FEW030 26/21 Q1015 NOSIG
NFFN 270700Z 29006KT 9999 FEW030 26/21 Q1014 NOSIG
NFFN 270600Z 29010KT 9999 FEW030 27/20 Q1013 NOSIG
NFFN 270500Z 31011KT 9999 FEW030 28/20 Q1013 NOSIG
NFFN 270400Z 30010KT 9999 FEW030 29/19 Q1013 NOSIG
NFFN 270300Z 28010KT 9999 FEW030 29/19 Q1013 NOSIG
NFFN 270200Z 27010KT 9999 FEW030 29/18 Q1014 NOSIG
NFFN 270100Z 28013KT 9999 FEW030 29/20 Q1015 NOSIG
NFFN 270000Z 29014KT 9999 FEW030 28/18 Q1015 NOSIG
NFFN 262300Z 28011KT 9999 FEW030 29/17 Q1016 NOSIG
NFFN 262200Z 30008KT 9999 FEW030 29/17 Q1017 NOSIG
NFFN 262100Z 07003KT CAVOK 28/18 Q1017 NOSIG
NFFN 262000Z 14006KT CAVOK 25/18 Q1017 NOSIG